UAE88 LSZH-OMDB
Flight info
| Callsign | UAE88 |
|---|---|
| Flight time | N/A |
| Altitude | 35000 |
| Route | DEGES Z2 TUNUM Z204 GEDSO DCT VEKEN/N0486F370 DCT TUPUS DCT MODRA DCT ERANA DCT TSL UN130 PIVOS/N0484F390 UN130 MES UL609 RDS DCT VANZA DCT LAKTO L560 SERMA L550 KARIK B411 DEESA Y415 NIMAR G662 KSA M321 RESAL T533 RAPMA DCT KUVSO DCT RIBOT M550 GOLGU DCT UKRAG G783 ELUDA/N0473F350 G783 ASPED Q308 KIPOK Q568 IMPED |
| Aircraft | A388/J-SADE2E3FGHIJ3J4J5M1RWXY/LB1D1 |
Departure
| Time | 2026-04-30 09:17 |
|---|---|
| Airport | Zürich Airport (LSZH) |
Arrival
| Time | N/A |
|---|---|
| Airport | Dubai International Airport (OMDB) |
| Time | Latitude | Longitude | Altitude | Speed | Heading |
|---|---|---|---|---|---|
| 2026-04-30 08:52 | 47.46199 | 8.55098 | 1408 ft | 0 kts | 155° |
| 2026-04-30 09:04 | 47.46201 | 8.55097 | 1398 ft | 1 kts | 155° |
| 2026-04-30 09:04 | 47.46216 | 8.55086 | 1408 ft | 3 kts | 156° |
| 2026-04-30 09:04 | 47.46235 | 8.55074 | 1407 ft | 3 kts | 160° |
| 2026-04-30 09:05 | 47.46254 | 8.55065 | 1407 ft | 3 kts | 156° |
| 2026-04-30 09:05 | 47.46271 | 8.55051 | 1407 ft | 3 kts | 140° |
| 2026-04-30 09:05 | 47.46284 | 8.55030 | 1406 ft | 3 kts | 117° |
| 2026-04-30 09:05 | 47.46291 | 8.55003 | 1406 ft | 3 kts | 98° |
| 2026-04-30 09:06 | 47.46293 | 8.54974 | 1406 ft | 2 kts | 96° |
| 2026-04-30 09:06 | 47.46295 | 8.54950 | 1405 ft | 3 kts | 96° |
| 2026-04-30 09:06 | 47.46297 | 8.54920 | 1405 ft | 3 kts | 95° |
| 2026-04-30 09:06 | 47.46299 | 8.54890 | 1405 ft | 3 kts | 95° |
| 2026-04-30 09:07 | 47.46301 | 8.54863 | 1404 ft | 2 kts | 95° |
| 2026-04-30 09:07 | 47.46302 | 8.54846 | 1404 ft | 3 kts | 89° |
| 2026-04-30 09:07 | 47.46299 | 8.54818 | 1404 ft | 3 kts | 62° |
| 2026-04-30 09:07 | 47.46288 | 8.54797 | 1404 ft | 3 kts | 25° |
| 2026-04-30 09:08 | 47.46269 | 8.54789 | 1404 ft | 3 kts | 1° |
| 2026-04-30 09:08 | 47.46249 | 8.54790 | 1404 ft | 3 kts | 348° |
| 2026-04-30 09:08 | 47.46230 | 8.54798 | 1407 ft | 3 kts | 338° |
| 2026-04-30 09:08 | 47.46223 | 8.54803 | 1405 ft | 0 kts | 334° |
| 2026-04-30 09:10 | 47.46236 | 8.54793 | 1396 ft | 10 kts | 334° |
| 2026-04-30 09:11 | 47.46338 | 8.54721 | 1386 ft | 17 kts | 335° |
| 2026-04-30 09:11 | 47.46436 | 8.54653 | 1403 ft | 15 kts | 335° |
| 2026-04-30 09:11 | 47.46526 | 8.54591 | 1398 ft | 14 kts | 335° |
| 2026-04-30 09:11 | 47.46620 | 8.54527 | 1401 ft | 20 kts | 335° |
| 2026-04-30 09:12 | 47.46751 | 8.54442 | 1385 ft | 21 kts | 339° |
| 2026-04-30 09:12 | 47.46883 | 8.54361 | 1383 ft | 20 kts | 335° |
| 2026-04-30 09:12 | 47.47001 | 8.54280 | 1386 ft | 18 kts | 335° |
| 2026-04-30 09:12 | 47.47107 | 8.54206 | 1387 ft | 15 kts | 335° |
| 2026-04-30 09:13 | 47.47197 | 8.54144 | 1401 ft | 14 kts | 335° |
| 2026-04-30 09:13 | 47.47283 | 8.54086 | 1398 ft | 13 kts | 334° |
| 2026-04-30 09:13 | 47.47362 | 8.54031 | 1405 ft | 12 kts | 335° |
| 2026-04-30 09:13 | 47.47434 | 8.53981 | 1405 ft | 12 kts | 335° |
| 2026-04-30 09:14 | 47.47506 | 8.53931 | 1407 ft | 11 kts | 335° |
| 2026-04-30 09:14 | 47.47576 | 8.53881 | 1409 ft | 11 kts | 327° |
| 2026-04-30 09:14 | 47.47612 | 8.53792 | 1409 ft | 10 kts | 269° |
| 2026-04-30 09:14 | 47.47594 | 8.53702 | 1411 ft | 7 kts | 244° |
| 2026-04-30 09:15 | 47.47565 | 8.53631 | 1405 ft | 9 kts | 218° |
| 2026-04-30 09:15 | 47.47509 | 8.53635 | 1410 ft | 10 kts | 153° |
| 2026-04-30 09:15 | 47.47496 | 8.53644 | 1406 ft | 5 kts | 153° |
| 2026-04-30 09:15 | 47.47488 | 8.53650 | 1410 ft | 4 kts | 154° |
| 2026-04-30 09:16 | 47.47349 | 8.53748 | 1399 ft | 57 kts | 155° |
| 2026-04-30 09:16 | 47.46743 | 8.54167 | 1383 ft | 131 kts | 155° |
| 2026-04-30 09:16 | 47.45772 | 8.54856 | 1415 ft | 173 kts | 148° |
| 2026-04-30 09:16 | 47.44670 | 8.55625 | 1870 ft | 174 kts | 150° |
| 2026-04-30 09:17 | 47.43589 | 8.56367 | 2436 ft | 171 kts | 141° |
| 2026-04-30 09:17 | 47.42890 | 8.57681 | 2905 ft | 162 kts | 102° |
| 2026-04-30 09:17 | 47.42978 | 8.59317 | 3205 ft | 168 kts | 63° |
| 2026-04-30 09:17 | 47.43730 | 8.60712 | 3347 ft | 180 kts | 47° |
| 2026-04-30 09:18 | 47.44613 | 8.62053 | 3626 ft | 184 kts | 50° |
| 2026-04-30 09:18 | 47.45418 | 8.63528 | 3869 ft | 188 kts | 56° |
| 2026-04-30 09:18 | 47.46041 | 8.65308 | 4140 ft | 202 kts | 75° |
| 2026-04-30 09:18 | 47.46206 | 8.67359 | 4941 ft | 205 kts | 88° |
| 2026-04-30 09:19 | 47.46271 | 8.69569 | 5386 ft | 226 kts | 87° |
| 2026-04-30 09:19 | 47.46358 | 8.71947 | 5883 ft | 245 kts | 87° |
| 2026-04-30 09:19 | 47.46452 | 8.74551 | 6408 ft | 259 kts | 87° |
| 2026-04-30 09:19 | 47.46547 | 8.77236 | 7158 ft | 263 kts | 87° |
| 2026-04-30 09:20 | 47.46643 | 8.79946 | 8014 ft | 264 kts | 87° |
| 2026-04-30 09:20 | 47.46634 | 8.82633 | 8905 ft | 264 kts | 94° |
| 2026-04-30 09:20 | 47.46310 | 8.85346 | 9552 ft | 274 kts | 102° |
| 2026-04-30 09:20 | 47.45875 | 8.88117 | 10320 ft | 275 kts | 101° |
| 2026-04-30 09:21 | 47.45458 | 8.90914 | 10871 ft | 288 kts | 101° |
| 2026-04-30 09:21 | 47.45027 | 8.93919 | 11044 ft | 310 kts | 101° |
| 2026-04-30 09:21 | 47.44580 | 8.97084 | 11259 ft | 328 kts | 101° |
| 2026-04-30 09:21 | 47.44109 | 9.00418 | 11790 ft | 334 kts | 101° |
| 2026-04-30 09:22 | 47.43627 | 9.03791 | 12442 ft | 337 kts | 100° |
| 2026-04-30 09:22 | 47.43137 | 9.07197 | 13061 ft | 341 kts | 101° |
| 2026-04-30 09:22 | 47.42639 | 9.10650 | 13687 ft | 346 kts | 101° |
| 2026-04-30 09:22 | 47.42134 | 9.14139 | 14295 ft | 349 kts | 101° |
| 2026-04-30 09:23 | 47.41677 | 9.17621 | 14864 ft | 351 kts | 95° |
| 2026-04-30 09:23 | 47.41592 | 9.21264 | 15517 ft | 350 kts | 85° |
| 2026-04-30 09:23 | 47.41921 | 9.24772 | 16097 ft | 351 kts | 76° |
| 2026-04-30 09:23 | 47.42486 | 9.28291 | 16674 ft | 353 kts | 75° |
| 2026-04-30 09:24 | 47.43034 | 9.31836 | 17307 ft | 354 kts | 75° |
| 2026-04-30 09:24 | 47.43574 | 9.35394 | 17878 ft | 357 kts | 75° |
| 2026-04-30 09:24 | 47.44115 | 9.38979 | 18452 ft | 359 kts | 75° |
| 2026-04-30 09:24 | 47.44658 | 9.42591 | 18960 ft | 361 kts | 75° |
| 2026-04-30 09:25 | 47.45203 | 9.46220 | 19471 ft | 362 kts | 75° |
| 2026-04-30 09:25 | 47.45749 | 9.49862 | 19969 ft | 364 kts | 75° |
| 2026-04-30 09:25 | 47.46297 | 9.53520 | 20477 ft | 365 kts | 75° |
| 2026-04-30 09:25 | 47.46818 | 9.57155 | 20934 ft | 368 kts | 78° |
| 2026-04-30 09:26 | 47.47091 | 9.60930 | 21419 ft | 372 kts | 85° |
| 2026-04-30 09:26 | 47.47044 | 9.64774 | 21930 ft | 376 kts | 91° |
| 2026-04-30 09:26 | 47.46809 | 9.68620 | 22394 ft | 377 kts | 91° |
| 2026-04-30 09:26 | 47.46593 | 9.72495 | 22833 ft | 379 kts | 91° |
| 2026-04-30 09:27 | 47.46383 | 9.76390 | 23287 ft | 381 kts | 91° |
| 2026-04-30 09:27 | 47.46171 | 9.80309 | 23741 ft | 383 kts | 91° |
| 2026-04-30 09:27 | 47.45958 | 9.84192 | 24139 ft | 385 kts | 91° |
| 2026-04-30 09:27 | 47.45738 | 9.88132 | 24537 ft | 386 kts | 91° |
| 2026-04-30 09:28 | 47.45516 | 9.92096 | 24925 ft | 388 kts | 91° |
| 2026-04-30 09:28 | 47.45292 | 9.96071 | 25327 ft | 389 kts | 91° |
| 2026-04-30 09:28 | 47.45064 | 10.00063 | 25706 ft | 391 kts | 91° |
| 2026-04-30 09:28 | 47.44834 | 10.04071 | 26154 ft | 392 kts | 91° |
| 2026-04-30 09:29 | 47.44602 | 10.08090 | 26626 ft | 393 kts | 91° |
| 2026-04-30 09:29 | 47.44368 | 10.12121 | 27069 ft | 395 kts | 91° |
| 2026-04-30 09:29 | 47.44134 | 10.16121 | 27537 ft | 397 kts | 91° |
| 2026-04-30 09:29 | 47.43776 | 10.20183 | 27970 ft | 402 kts | 96° |
| 2026-04-30 09:30 | 47.43215 | 10.24243 | 28440 ft | 404 kts | 97° |
| 2026-04-30 09:30 | 47.42660 | 10.28325 | 28925 ft | 407 kts | 96° |
| 2026-04-30 09:30 | 47.42109 | 10.32427 | 29366 ft | 408 kts | 96° |
| 2026-04-30 09:30 | 47.41555 | 10.36546 | 29740 ft | 411 kts | 96° |
| 2026-04-30 09:31 | 47.40995 | 10.40703 | 30219 ft | 413 kts | 96° |
| 2026-04-30 09:31 | 47.40436 | 10.44822 | 30641 ft | 417 kts | 96° |
| 2026-04-30 09:31 | 47.39863 | 10.49037 | 30981 ft | 421 kts | 96° |
| 2026-04-30 09:31 | 47.39281 | 10.53284 | 31351 ft | 425 kts | 96° |
| 2026-04-30 09:32 | 47.38690 | 10.57576 | 31701 ft | 429 kts | 96° |
| 2026-04-30 09:32 | 47.38091 | 10.61903 | 32017 ft | 432 kts | 96° |
| 2026-04-30 09:32 | 47.37486 | 10.66269 | 32309 ft | 436 kts | 97° |
| 2026-04-30 09:32 | 47.36873 | 10.70672 | 32657 ft | 439 kts | 97° |
| 2026-04-30 09:33 | 47.36255 | 10.75106 | 32976 ft | 443 kts | 97° |
| 2026-04-30 09:33 | 47.35629 | 10.79568 | 33266 ft | 447 kts | 97° |
| 2026-04-30 09:33 | 47.34996 | 10.84075 | 33603 ft | 451 kts | 97° |
| 2026-04-30 09:33 | 47.34365 | 10.88557 | 33982 ft | 454 kts | 97° |
| 2026-04-30 09:34 | 47.33720 | 10.93137 | 34267 ft | 459 kts | 97° |
| 2026-04-30 09:34 | 47.33066 | 10.97757 | 34534 ft | 462 kts | 97° |
| 2026-04-30 09:34 | 47.32405 | 11.02412 | 34816 ft | 466 kts | 97° |
| 2026-04-30 09:34 | 47.31737 | 11.07090 | 35145 ft | 467 kts | 97° |
| 2026-04-30 09:35 | 47.31064 | 11.11805 | 35289 ft | 474 kts | 97° |
| 2026-04-30 09:35 | 47.30382 | 11.16569 | 35296 ft | 473 kts | 97° |
| 2026-04-30 09:35 | 47.29026 | 11.25966 | 35340 ft | 474 kts | 98° |
| 2026-04-30 09:36 | 47.27647 | 11.35477 | 35317 ft | 475 kts | 98° |
| 2026-04-30 09:36 | 47.26219 | 11.44975 | 35318 ft | 477 kts | 101° |
| 2026-04-30 09:37 | 47.23679 | 11.54074 | 35317 ft | 486 kts | 115° |
| 2026-04-30 09:37 | 47.19874 | 11.62362 | 35278 ft | 491 kts | 121° |
| 2026-04-30 09:38 | 47.15965 | 11.70537 | 35271 ft | 492 kts | 121° |
| 2026-04-30 09:38 | 47.12026 | 11.78766 | 35271 ft | 493 kts | 121° |
| 2026-04-30 09:39 | 47.08135 | 11.87067 | 35263 ft | 492 kts | 116° |
| 2026-04-30 09:39 | 47.05060 | 11.95981 | 35272 ft | 490 kts | 111° |
| 2026-04-30 09:40 | 47.02090 | 12.04901 | 35270 ft | 490 kts | 112° |
| 2026-04-30 09:40 | 46.99077 | 12.13876 | 35281 ft | 491 kts | 112° |
| 2026-04-30 09:41 | 46.96061 | 12.22827 | 35294 ft | 490 kts | 112° |
| 2026-04-30 09:41 | 46.93040 | 12.31767 | 35296 ft | 490 kts | 112° |
| 2026-04-30 09:42 | 46.90009 | 12.40712 | 35264 ft | 492 kts | 112° |
| 2026-04-30 09:42 | 46.86973 | 12.49635 | 35280 ft | 495 kts | 112° |
| 2026-04-30 09:43 | 46.83895 | 12.58647 | 35280 ft | 496 kts | 113° |
| 2026-04-30 09:43 | 46.80807 | 12.67659 | 35274 ft | 497 kts | 113° |
| 2026-04-30 09:44 | 46.77705 | 12.76685 | 35250 ft | 498 kts | 113° |
| 2026-04-30 09:44 | 46.74606 | 12.85668 | 35253 ft | 499 kts | 113° |
| 2026-04-30 09:45 | 46.71475 | 12.94711 | 35282 ft | 500 kts | 113° |
| 2026-04-30 09:45 | 46.68325 | 13.03780 | 35803 ft | 501 kts | 113° |
| 2026-04-30 09:46 | 46.66751 | 13.08301 | 36166 ft | 502 kts | 114° |
| 2026-04-30 09:46 | 46.65167 | 13.12847 | 36482 ft | 504 kts | 114° |
| 2026-04-30 09:46 | 46.63597 | 13.17340 | 36853 ft | 505 kts | 114° |
| 2026-04-30 09:46 | 46.62002 | 13.21895 | 37215 ft | 506 kts | 114° |
| 2026-04-30 09:47 | 46.58786 | 13.31062 | 37286 ft | 506 kts | 115° |
| 2026-04-30 09:47 | 46.55331 | 13.39967 | 37299 ft | 508 kts | 123° |
| 2026-04-30 09:48 | 46.51083 | 13.48224 | 37304 ft | 511 kts | 125° |
| 2026-04-30 09:48 | 46.46871 | 13.56422 | 37295 ft | 510 kts | 125° |
| 2026-04-30 09:49 | 46.42624 | 13.64675 | 37305 ft | 510 kts | 125° |
| 2026-04-30 09:49 | 46.38377 | 13.72893 | 37285 ft | 509 kts | 125° |
| 2026-04-30 09:50 | 46.34125 | 13.81091 | 37293 ft | 510 kts | 125° |
| 2026-04-30 09:50 | 46.29896 | 13.89224 | 37295 ft | 508 kts | 125° |
| 2026-04-30 09:51 | 46.25637 | 13.97390 | 37285 ft | 509 kts | 125° |
| 2026-04-30 09:51 | 46.21360 | 14.05567 | 37307 ft | 511 kts | 126° |
| 2026-04-30 09:52 | 46.17063 | 14.13761 | 37327 ft | 514 kts | 126° |
| 2026-04-30 09:52 | 46.12734 | 14.21986 | 37354 ft | 515 kts | 126° |
| 2026-04-30 09:53 | 46.08418 | 14.30165 | 37366 ft | 517 kts | 126° |
| 2026-04-30 09:53 | 46.04052 | 14.38415 | 37325 ft | 520 kts | 126° |
| 2026-04-30 09:54 | 45.99654 | 14.46704 | 37364 ft | 522 kts | 126° |
| 2026-04-30 09:54 | 45.95231 | 14.55012 | 37379 ft | 524 kts | 126° |
| 2026-04-30 09:55 | 45.90824 | 14.63265 | 37386 ft | 525 kts | 126° |
| 2026-04-30 09:55 | 45.86370 | 14.71580 | 37403 ft | 525 kts | 126° |
| 2026-04-30 09:56 | 45.81909 | 14.79887 | 37403 ft | 525 kts | 126° |
| 2026-04-30 09:56 | 45.77445 | 14.88173 | 37399 ft | 525 kts | 126° |
| 2026-04-30 09:57 | 45.73011 | 14.96378 | 37390 ft | 524 kts | 126° |
| 2026-04-30 09:57 | 45.68555 | 15.04603 | 37415 ft | 523 kts | 127° |
| 2026-04-30 09:58 | 45.64089 | 15.12820 | 37370 ft | 523 kts | 127° |
| 2026-04-30 09:58 | 45.59622 | 15.21017 | 37362 ft | 523 kts | 127° |
| 2026-04-30 09:59 | 45.50705 | 15.37308 | 37363 ft | 523 kts | 127° |
| 2026-04-30 10:00 | 45.43967 | 15.49556 | 37378 ft | 524 kts | 127° |
| 2026-04-30 10:01 | 45.37228 | 15.61751 | 37384 ft | 525 kts | 127° |
| 2026-04-30 10:02 | 45.30433 | 15.73997 | 37377 ft | 526 kts | 127° |
| 2026-04-30 10:02 | 45.25893 | 15.82149 | 37364 ft | 526 kts | 127° |
| 2026-04-30 10:03 | 45.21361 | 15.90274 | 37380 ft | 525 kts | 128° |
| 2026-04-30 10:03 | 45.16829 | 15.98318 | 37380 ft | 526 kts | 128° |
| 2026-04-30 10:04 | 45.12265 | 16.06412 | 37374 ft | 525 kts | 128° |
| 2026-04-30 10:04 | 45.07705 | 16.14496 | 37347 ft | 525 kts | 128° |
| 2026-04-30 10:05 | 45.03141 | 16.22557 | 37349 ft | 525 kts | 128° |
| 2026-04-30 10:05 | 44.98608 | 16.30539 | 37335 ft | 525 kts | 128° |
| 2026-04-30 10:06 | 44.94030 | 16.38575 | 37327 ft | 525 kts | 129° |
| 2026-04-30 10:06 | 44.89440 | 16.46607 | 37328 ft | 526 kts | 129° |
| 2026-04-30 10:07 | 44.84838 | 16.54639 | 37349 ft | 527 kts | 129° |
| 2026-04-30 10:07 | 44.80256 | 16.62614 | 37341 ft | 527 kts | 129° |
| 2026-04-30 10:08 | 44.75641 | 16.70625 | 37347 ft | 527 kts | 129° |
| 2026-04-30 10:08 | 44.71013 | 16.78635 | 37337 ft | 528 kts | 129° |
| 2026-04-30 10:09 | 44.66371 | 16.86647 | 37346 ft | 529 kts | 130° |
| 2026-04-30 10:09 | 44.61747 | 16.94605 | 37346 ft | 530 kts | 130° |
| 2026-04-30 10:10 | 44.57078 | 17.02617 | 37346 ft | 530 kts | 130° |
| 2026-04-30 10:10 | 44.52400 | 17.10622 | 37342 ft | 531 kts | 130° |
| 2026-04-30 10:11 | 44.47716 | 17.18618 | 37329 ft | 531 kts | 130° |
| 2026-04-30 10:11 | 44.43030 | 17.26592 | 37303 ft | 531 kts | 130° |
| 2026-04-30 10:12 | 44.38361 | 17.34517 | 37298 ft | 532 kts | 130° |
| 2026-04-30 10:12 | 44.33646 | 17.42495 | 37319 ft | 533 kts | 130° |
| 2026-04-30 10:13 | 44.28920 | 17.50473 | 37299 ft | 533 kts | 130° |
| 2026-04-30 10:13 | 44.24185 | 17.58442 | 37293 ft | 533 kts | 130° |
| 2026-04-30 10:14 | 44.19482 | 17.66336 | 37271 ft | 533 kts | 130° |
| 2026-04-30 10:14 | 44.12361 | 17.78249 | 37301 ft | 534 kts | 131° |
| 2026-04-30 10:15 | 44.07600 | 17.86185 | 37306 ft | 534 kts | 131° |
| 2026-04-30 10:15 | 44.02864 | 17.94057 | 37298 ft | 534 kts | 131° |
| 2026-04-30 10:16 | 43.98095 | 18.01962 | 37304 ft | 533 kts | 131° |
| 2026-04-30 10:17 | 43.90944 | 18.13777 | 37277 ft | 533 kts | 132° |
| 2026-04-30 10:17 | 43.83801 | 18.25528 | 37286 ft | 534 kts | 132° |
| 2026-04-30 10:18 | 43.79004 | 18.33393 | 37285 ft | 535 kts | 132° |
| 2026-04-30 10:19 | 43.71793 | 18.45176 | 37296 ft | 536 kts | 132° |
| 2026-04-30 10:19 | 43.66970 | 18.53032 | 37297 ft | 536 kts | 132° |
| 2026-04-30 10:20 | 43.62167 | 18.60834 | 37270 ft | 538 kts | 133° |
| 2026-04-30 10:20 | 43.54880 | 18.72628 | 37291 ft | 539 kts | 133° |
| 2026-04-30 10:21 | 43.50004 | 18.80493 | 37298 ft | 540 kts | 133° |
| 2026-04-30 10:21 | 43.45152 | 18.88300 | 37308 ft | 541 kts | 133° |
| 2026-04-30 10:22 | 43.40249 | 18.96166 | 37313 ft | 541 kts | 133° |
| 2026-04-30 10:22 | 43.35340 | 19.04022 | 37311 ft | 542 kts | 134° |
| 2026-04-30 10:23 | 43.30418 | 19.11876 | 37311 ft | 543 kts | 134° |
| 2026-04-30 10:23 | 43.25520 | 19.19670 | 37319 ft | 543 kts | 134° |
| 2026-04-30 10:24 | 43.20590 | 19.27496 | 37333 ft | 543 kts | 134° |
| 2026-04-30 10:24 | 43.15651 | 19.35313 | 37326 ft | 542 kts | 134° |
| 2026-04-30 10:25 | 43.10707 | 19.43118 | 37329 ft | 542 kts | 134° |
| 2026-04-30 10:25 | 43.05796 | 19.50856 | 37333 ft | 542 kts | 134° |
| 2026-04-30 10:26 | 43.00856 | 19.58616 | 37331 ft | 541 kts | 135° |
| 2026-04-30 10:26 | 42.95772 | 19.66156 | 37315 ft | 540 kts | 135° |
| 2026-04-30 10:27 | 42.90745 | 19.73764 | 37316 ft | 540 kts | 135° |
| 2026-04-30 10:27 | 42.85701 | 19.81343 | 37297 ft | 539 kts | 135° |
| 2026-04-30 10:28 | 42.80676 | 19.88842 | 37294 ft | 540 kts | 135° |
| 2026-04-30 10:28 | 42.75611 | 19.96381 | 37292 ft | 540 kts | 135° |
| 2026-04-30 10:29 | 42.70524 | 20.03931 | 37285 ft | 542 kts | 135° |
| 2026-04-30 10:29 | 42.65460 | 20.11430 | 37275 ft | 542 kts | 136° |
| 2026-04-30 10:30 | 42.60353 | 20.18970 | 37272 ft | 542 kts | 135° |
| 2026-04-30 10:30 | 42.55255 | 20.26479 | 37287 ft | 540 kts | 135° |
| 2026-04-30 10:31 | 42.50167 | 20.33954 | 37269 ft | 539 kts | 135° |
| 2026-04-30 10:31 | 42.45082 | 20.41403 | 37259 ft | 538 kts | 136° |
| 2026-04-30 10:32 | 42.40032 | 20.48783 | 37245 ft | 537 kts | 136° |
| 2026-04-30 10:32 | 42.34955 | 20.56184 | 37259 ft | 536 kts | 136° |
| 2026-04-30 10:33 | 42.29883 | 20.63558 | 37249 ft | 535 kts | 136° |
| 2026-04-30 10:33 | 42.24814 | 20.70908 | 37249 ft | 535 kts | 136° |
| 2026-04-30 10:34 | 42.19766 | 20.78210 | 37239 ft | 536 kts | 136° |
| 2026-04-30 10:34 | 42.14676 | 20.85556 | 37252 ft | 536 kts | 136° |
| 2026-04-30 10:35 | 42.09579 | 20.92891 | 37238 ft | 536 kts | 136° |
| 2026-04-30 10:35 | 42.04483 | 21.00208 | 37240 ft | 534 kts | 136° |
| 2026-04-30 10:36 | 41.99437 | 21.07434 | 37214 ft | 533 kts | 136° |
| 2026-04-30 10:36 | 41.94357 | 21.14691 | 37195 ft | 533 kts | 136° |
| 2026-04-30 10:37 | 41.89279 | 21.21926 | 37184 ft | 532 kts | 137° |
| 2026-04-30 10:37 | 41.84201 | 21.29146 | 37175 ft | 532 kts | 137° |
| 2026-04-30 10:38 | 41.79154 | 21.36302 | 37139 ft | 531 kts | 137° |
| 2026-04-30 10:38 | 41.74084 | 21.43474 | 37176 ft | 529 kts | 137° |
| 2026-04-30 10:39 | 41.69879 | 21.49408 | 37177 ft | 528 kts | 137° |
| 2026-04-30 10:39 | 41.64821 | 21.56529 | 37163 ft | 527 kts | 137° |
| 2026-04-30 10:40 | 41.59762 | 21.63633 | 37141 ft | 528 kts | 137° |
| 2026-04-30 10:40 | 41.54695 | 21.70735 | 37139 ft | 528 kts | 137° |
| 2026-04-30 10:41 | 41.49658 | 21.77777 | 37139 ft | 529 kts | 137° |
| 2026-04-30 10:41 | 41.44571 | 21.84870 | 37152 ft | 529 kts | 137° |
| 2026-04-30 10:42 | 41.39474 | 21.91961 | 37151 ft | 530 kts | 137° |
| 2026-04-30 10:42 | 41.33550 | 22.00182 | 37142 ft | 529 kts | 137° |
| 2026-04-30 10:43 | 41.29276 | 22.06097 | 37139 ft | 529 kts | 137° |
| 2026-04-30 10:43 | 41.24216 | 22.13085 | 37072 ft | 528 kts | 137° |
| 2026-04-30 10:44 | 41.19124 | 22.20106 | 37106 ft | 528 kts | 137° |
| 2026-04-30 10:44 | 41.13781 | 22.26719 | 37091 ft | 522 kts | 146° |
| 2026-04-30 10:45 | 41.08118 | 22.32772 | 37081 ft | 523 kts | 145° |
| 2026-04-30 10:45 | 41.02508 | 22.38810 | 37073 ft | 523 kts | 145° |
| 2026-04-30 10:46 | 40.96856 | 22.44873 | 37075 ft | 522 kts | 145° |
| 2026-04-30 10:46 | 40.91218 | 22.50903 | 37066 ft | 521 kts | 145° |
| 2026-04-30 10:47 | 40.85578 | 22.56920 | 37060 ft | 521 kts | 145° |
| 2026-04-30 10:47 | 40.79940 | 22.62922 | 37052 ft | 520 kts | 145° |
| 2026-04-30 10:48 | 40.74339 | 22.68870 | 37052 ft | 520 kts | 145° |
| 2026-04-30 10:48 | 40.68702 | 22.74843 | 37059 ft | 519 kts | 145° |
| 2026-04-30 10:49 | 40.63070 | 22.80798 | 37058 ft | 518 kts | 145° |
| 2026-04-30 10:49 | 40.57452 | 22.86726 | 37049 ft | 518 kts | 145° |
| 2026-04-30 10:50 | 40.51867 | 22.92605 | 37045 ft | 517 kts | 145° |
| 2026-04-30 10:50 | 40.46258 | 22.98530 | 37046 ft | 518 kts | 143° |
| 2026-04-30 10:51 | 40.41178 | 23.05307 | 37039 ft | 521 kts | 136° |
| 2026-04-30 10:51 | 40.36195 | 23.12226 | 37046 ft | 522 kts | 137° |
| 2026-04-30 10:52 | 40.31229 | 23.19080 | 37057 ft | 522 kts | 137° |
| 2026-04-30 10:52 | 40.26228 | 23.25962 | 37064 ft | 522 kts | 137° |
| 2026-04-30 10:53 | 40.21217 | 23.32842 | 37067 ft | 522 kts | 137° |
| 2026-04-30 10:53 | 40.16204 | 23.39709 | 37068 ft | 521 kts | 137° |
| 2026-04-30 10:54 | 40.11230 | 23.46507 | 37063 ft | 521 kts | 137° |
| 2026-04-30 10:54 | 40.06222 | 23.53337 | 37060 ft | 520 kts | 137° |
| 2026-04-30 10:55 | 40.01218 | 23.60146 | 37057 ft | 520 kts | 137° |
| 2026-04-30 10:55 | 39.96206 | 23.66950 | 37059 ft | 520 kts | 137° |
| 2026-04-30 10:56 | 39.91189 | 23.73745 | 37059 ft | 520 kts | 137° |
| 2026-04-30 10:56 | 39.86205 | 23.80482 | 37053 ft | 520 kts | 137° |
| 2026-04-30 10:57 | 39.81190 | 23.87243 | 37058 ft | 519 kts | 137° |
| 2026-04-30 10:57 | 39.76170 | 23.93998 | 37066 ft | 519 kts | 137° |
| 2026-04-30 10:58 | 39.71146 | 24.00741 | 37077 ft | 519 kts | 137° |
| 2026-04-30 10:58 | 39.66153 | 24.07429 | 37080 ft | 519 kts | 137° |
| 2026-04-30 10:59 | 39.61122 | 24.14152 | 37076 ft | 519 kts | 137° |
| 2026-04-30 10:59 | 39.56088 | 24.20866 | 37060 ft | 519 kts | 137° |
| 2026-04-30 11:00 | 39.51052 | 24.27565 | 37062 ft | 520 kts | 137° |
| 2026-04-30 11:00 | 39.46037 | 24.34223 | 37065 ft | 520 kts | 137° |
| 2026-04-30 11:01 | 39.40983 | 24.40918 | 37057 ft | 520 kts | 137° |
| 2026-04-30 11:01 | 39.35923 | 24.47607 | 37057 ft | 520 kts | 138° |
| 2026-04-30 11:02 | 39.30868 | 24.54308 | 37060 ft | 521 kts | 137° |
| 2026-04-30 11:02 | 39.25879 | 24.60995 | 37056 ft | 521 kts | 137° |
| 2026-04-30 11:03 | 39.20846 | 24.67719 | 37058 ft | 521 kts | 137° |
| 2026-04-30 11:04 | 39.13285 | 24.77779 | 37059 ft | 521 kts | 137° |
| 2026-04-30 11:04 | 39.08224 | 24.84465 | 37059 ft | 521 kts | 138° |
| 2026-04-30 11:05 | 39.03149 | 24.91034 | 37055 ft | 521 kts | 138° |
| 2026-04-30 11:05 | 38.98039 | 24.97638 | 37049 ft | 520 kts | 138° |
| 2026-04-30 11:06 | 38.92932 | 25.04237 | 37045 ft | 521 kts | 138° |
| 2026-04-30 11:06 | 38.87825 | 25.10825 | 37043 ft | 521 kts | 138° |
| 2026-04-30 11:07 | 38.82738 | 25.17372 | 37045 ft | 522 kts | 138° |
| 2026-04-30 11:07 | 38.77610 | 25.23958 | 37047 ft | 522 kts | 138° |
| 2026-04-30 11:08 | 38.72476 | 25.30538 | 37047 ft | 522 kts | 139° |
| 2026-04-30 11:08 | 38.67345 | 25.37099 | 37041 ft | 522 kts | 138° |
| 2026-04-30 11:09 | 38.62239 | 25.43614 | 37035 ft | 522 kts | 138° |
| 2026-04-30 11:09 | 38.57081 | 25.50181 | 37318 ft | 525 kts | 139° |
| 2026-04-30 11:09 | 38.54494 | 25.53470 | 37725 ft | 525 kts | 139° |
| 2026-04-30 11:10 | 38.51903 | 25.56761 | 38106 ft | 526 kts | 139° |
| 2026-04-30 11:10 | 38.49309 | 25.60053 | 38475 ft | 526 kts | 139° |
| 2026-04-30 11:10 | 38.46708 | 25.63348 | 38812 ft | 527 kts | 139° |
| 2026-04-30 11:10 | 38.44100 | 25.66650 | 39000 ft | 530 kts | 139° |
| 2026-04-30 11:11 | 38.41518 | 25.69913 | 39029 ft | 527 kts | 139° |
| 2026-04-30 11:11 | 38.36335 | 25.76461 | 39042 ft | 526 kts | 139° |
| 2026-04-30 11:12 | 38.31143 | 25.83029 | 39024 ft | 526 kts | 139° |
| 2026-04-30 11:12 | 38.25947 | 25.89594 | 39013 ft | 526 kts | 139° |
| 2026-04-30 11:13 | 38.20498 | 25.95773 | 39012 ft | 524 kts | 143° |
| 2026-04-30 11:13 | 38.15037 | 26.01820 | 39012 ft | 524 kts | 142° |
| 2026-04-30 11:14 | 38.09544 | 26.07899 | 39020 ft | 523 kts | 142° |
| 2026-04-30 11:14 | 38.04060 | 26.13957 | 39022 ft | 523 kts | 142° |
| 2026-04-30 11:15 | 37.98566 | 26.20010 | 39021 ft | 523 kts | 142° |
| 2026-04-30 11:15 | 37.93065 | 26.26058 | 39017 ft | 524 kts | 142° |
| 2026-04-30 11:16 | 37.87590 | 26.32064 | 39020 ft | 524 kts | 142° |
| 2026-04-30 11:16 | 37.82071 | 26.38098 | 39014 ft | 525 kts | 143° |
| 2026-04-30 11:17 | 37.76538 | 26.44123 | 39028 ft | 525 kts | 142° |
| 2026-04-30 11:17 | 37.71000 | 26.50143 | 39035 ft | 525 kts | 142° |
| 2026-04-30 11:18 | 37.65494 | 26.56121 | 39042 ft | 525 kts | 142° |
| 2026-04-30 11:18 | 37.57177 | 26.65152 | 39037 ft | 526 kts | 142° |
| 2026-04-30 11:19 | 37.51630 | 26.71158 | 39039 ft | 526 kts | 142° |
| 2026-04-30 11:19 | 37.46074 | 26.77161 | 39038 ft | 526 kts | 142° |
| 2026-04-30 11:20 | 37.40551 | 26.83115 | 39036 ft | 526 kts | 143° |
| 2026-04-30 11:20 | 37.35134 | 26.89320 | 39021 ft | 528 kts | 139° |
| 2026-04-30 11:21 | 37.29870 | 26.95753 | 39020 ft | 528 kts | 139° |
| 2026-04-30 11:21 | 37.24603 | 27.02088 | 39017 ft | 528 kts | 139° |
| 2026-04-30 11:22 | 37.19283 | 27.08424 | 39022 ft | 528 kts | 139° |
| 2026-04-30 11:22 | 37.13952 | 27.14754 | 39022 ft | 528 kts | 139° |
| 2026-04-30 11:23 | 37.08616 | 27.21076 | 39021 ft | 528 kts | 139° |
| 2026-04-30 11:24 | 37.00647 | 27.30497 | 39026 ft | 528 kts | 139° |
| 2026-04-30 11:24 | 36.95303 | 27.36799 | 39027 ft | 528 kts | 139° |
| 2026-04-30 11:25 | 36.87283 | 27.46231 | 39026 ft | 527 kts | 139° |
| 2026-04-30 11:26 | 36.76618 | 27.58731 | 39037 ft | 528 kts | 139° |
| 2026-04-30 11:26 | 36.71265 | 27.64987 | 39036 ft | 528 kts | 139° |
| 2026-04-30 11:27 | 36.65901 | 27.71241 | 39036 ft | 528 kts | 139° |
| 2026-04-30 11:27 | 36.60571 | 27.77445 | 39024 ft | 527 kts | 139° |
| 2026-04-30 11:28 | 36.52521 | 27.86790 | 39019 ft | 527 kts | 139° |
| 2026-04-30 11:29 | 36.47160 | 27.92999 | 39016 ft | 527 kts | 139° |
| 2026-04-30 11:29 | 36.39107 | 28.02302 | 39020 ft | 527 kts | 140° |
| 2026-04-30 11:30 | 36.31131 | 28.11604 | 38998 ft | 528 kts | 137° |
| 2026-04-30 11:31 | 36.25985 | 28.18100 | 39009 ft | 528 kts | 136° |
| 2026-04-30 11:31 | 36.20838 | 28.24569 | 39014 ft | 528 kts | 137° |
| 2026-04-30 11:32 | 36.15657 | 28.31011 | 39015 ft | 528 kts | 137° |
| 2026-04-30 11:32 | 36.10500 | 28.37398 | 39031 ft | 528 kts | 137° |
| 2026-04-30 11:33 | 36.02695 | 28.47041 | 39029 ft | 529 kts | 137° |
| 2026-04-30 11:33 | 35.97485 | 28.53464 | 39028 ft | 529 kts | 137° |
| 2026-04-30 11:34 | 35.92277 | 28.59870 | 39030 ft | 528 kts | 137° |
| 2026-04-30 11:34 | 35.87107 | 28.66218 | 39031 ft | 528 kts | 137° |
| 2026-04-30 11:35 | 35.81893 | 28.72606 | 39028 ft | 528 kts | 137° |
| 2026-04-30 11:35 | 35.76677 | 28.78985 | 39027 ft | 528 kts | 137° |
| 2026-04-30 11:36 | 35.71458 | 28.85356 | 39029 ft | 528 kts | 137° |
| 2026-04-30 11:36 | 35.66269 | 28.91677 | 39012 ft | 528 kts | 137° |
| 2026-04-30 11:37 | 35.61055 | 28.98016 | 39031 ft | 528 kts | 137° |
| 2026-04-30 11:37 | 35.55834 | 29.04352 | 39029 ft | 527 kts | 137° |
| 2026-04-30 11:38 | 35.50609 | 29.10679 | 39028 ft | 527 kts | 137° |
| 2026-04-30 11:38 | 35.45423 | 29.16948 | 39028 ft | 527 kts | 137° |
| 2026-04-30 11:39 | 35.40194 | 29.23257 | 39029 ft | 527 kts | 137° |
| 2026-04-30 11:39 | 35.34961 | 29.29558 | 39029 ft | 527 kts | 137° |
| 2026-04-30 11:40 | 35.29732 | 29.35843 | 39033 ft | 526 kts | 138° |
| 2026-04-30 11:40 | 35.24537 | 29.42074 | 39029 ft | 526 kts | 138° |
| 2026-04-30 11:41 | 35.19308 | 29.48335 | 39038 ft | 526 kts | 138° |
| 2026-04-30 11:41 | 35.14081 | 29.54580 | 39034 ft | 526 kts | 138° |
| 2026-04-30 11:42 | 35.08849 | 29.60821 | 39037 ft | 525 kts | 138° |
| 2026-04-30 11:42 | 35.03653 | 29.67007 | 39033 ft | 525 kts | 138° |
| 2026-04-30 11:43 | 34.98425 | 29.73220 | 39031 ft | 524 kts | 138° |
| 2026-04-30 11:43 | 34.93200 | 29.79417 | 39032 ft | 524 kts | 138° |
| 2026-04-30 11:44 | 34.87972 | 29.85605 | 39035 ft | 524 kts | 139° |
| 2026-04-30 11:44 | 34.82752 | 29.91773 | 39034 ft | 523 kts | 139° |
| 2026-04-30 11:45 | 34.77561 | 29.97897 | 39034 ft | 523 kts | 139° |
| 2026-04-30 11:45 | 34.72107 | 30.03706 | 39029 ft | 520 kts | 143° |
| 2026-04-30 11:46 | 34.66537 | 30.09332 | 39029 ft | 520 kts | 143° |
| 2026-04-30 11:46 | 34.60983 | 30.14954 | 39031 ft | 520 kts | 143° |
| 2026-04-30 11:47 | 34.55453 | 30.20533 | 39034 ft | 520 kts | 144° |
| 2026-04-30 11:47 | 34.49881 | 30.26140 | 39035 ft | 520 kts | 144° |
| 2026-04-30 11:48 | 34.44305 | 30.31742 | 39037 ft | 521 kts | 144° |
| 2026-04-30 11:48 | 34.38730 | 30.37332 | 39041 ft | 521 kts | 144° |
| 2026-04-30 11:49 | 34.33182 | 30.42886 | 39055 ft | 521 kts | 144° |
| 2026-04-30 11:49 | 34.27597 | 30.48467 | 39053 ft | 520 kts | 144° |
| 2026-04-30 11:50 | 34.22011 | 30.54038 | 39051 ft | 520 kts | 144° |
| 2026-04-30 11:50 | 34.16426 | 30.59599 | 39036 ft | 520 kts | 144° |
| 2026-04-30 11:51 | 34.10883 | 30.65108 | 39036 ft | 520 kts | 144° |
| 2026-04-30 11:51 | 34.05295 | 30.70652 | 39034 ft | 520 kts | 144° |
| 2026-04-30 11:52 | 33.99704 | 30.76190 | 39039 ft | 520 kts | 144° |
| 2026-04-30 11:52 | 33.94105 | 30.81724 | 39036 ft | 521 kts | 144° |
| 2026-04-30 11:53 | 33.88539 | 30.87217 | 39043 ft | 521 kts | 144° |
| 2026-04-30 11:53 | 33.82934 | 30.92738 | 39045 ft | 521 kts | 144° |
| 2026-04-30 11:54 | 33.77320 | 30.98260 | 39045 ft | 521 kts | 145° |
| 2026-04-30 11:54 | 33.71706 | 31.03772 | 39037 ft | 521 kts | 145° |
| 2026-04-30 11:55 | 33.66086 | 31.09279 | 39040 ft | 521 kts | 145° |
| 2026-04-30 11:55 | 33.60505 | 31.14739 | 39043 ft | 522 kts | 145° |
| 2026-04-30 11:56 | 33.54874 | 31.20237 | 39045 ft | 522 kts | 145° |
| 2026-04-30 11:56 | 33.49240 | 31.25730 | 39044 ft | 522 kts | 145° |
| 2026-04-30 11:57 | 33.43604 | 31.31216 | 39032 ft | 522 kts | 145° |
| 2026-04-30 11:57 | 33.38003 | 31.36657 | 39037 ft | 522 kts | 145° |
| 2026-04-30 11:58 | 33.32358 | 31.42132 | 39038 ft | 522 kts | 145° |
| 2026-04-30 11:58 | 33.26713 | 31.47598 | 39044 ft | 523 kts | 145° |
| 2026-04-30 11:59 | 33.21057 | 31.53065 | 39040 ft | 523 kts | 146° |
| 2026-04-30 11:59 | 33.15435 | 31.58490 | 39043 ft | 523 kts | 146° |
| 2026-04-30 12:00 | 33.09774 | 31.63943 | 39035 ft | 523 kts | 146° |
| 2026-04-30 12:00 | 33.04110 | 31.69389 | 39034 ft | 524 kts | 146° |
| 2026-04-30 12:01 | 32.98432 | 31.74840 | 39045 ft | 524 kts | 146° |
| 2026-04-30 12:01 | 32.92744 | 31.80290 | 39042 ft | 525 kts | 146° |
| 2026-04-30 12:02 | 32.87090 | 31.85701 | 39044 ft | 525 kts | 146° |
| 2026-04-30 12:02 | 32.81394 | 31.91141 | 39043 ft | 525 kts | 146° |
| 2026-04-30 12:03 | 32.72845 | 31.99289 | 39039 ft | 526 kts | 146° |
| 2026-04-30 12:04 | 32.67132 | 32.04724 | 39043 ft | 526 kts | 146° |
| 2026-04-30 12:04 | 32.61383 | 32.09988 | 39047 ft | 523 kts | 150° |
| 2026-04-30 12:05 | 32.55455 | 32.15009 | 39045 ft | 524 kts | 149° |
| 2026-04-30 12:05 | 32.49536 | 32.20051 | 39034 ft | 524 kts | 149° |
| 2026-04-30 12:06 | 32.43615 | 32.25074 | 39036 ft | 524 kts | 149° |
| 2026-04-30 12:06 | 32.37716 | 32.30066 | 39038 ft | 525 kts | 150° |
| 2026-04-30 12:07 | 32.31769 | 32.35089 | 39042 ft | 525 kts | 150° |
| 2026-04-30 12:07 | 32.25819 | 32.40107 | 39047 ft | 525 kts | 150° |
| 2026-04-30 12:08 | 32.19877 | 32.45111 | 39030 ft | 525 kts | 150° |
| 2026-04-30 12:08 | 32.13968 | 32.50077 | 39033 ft | 525 kts | 150° |
| 2026-04-30 12:09 | 32.08013 | 32.55070 | 39033 ft | 525 kts | 150° |
| 2026-04-30 12:09 | 32.02051 | 32.60060 | 39035 ft | 526 kts | 150° |
| 2026-04-30 12:10 | 31.96128 | 32.65012 | 39050 ft | 525 kts | 150° |
| 2026-04-30 12:10 | 31.90174 | 32.69981 | 39028 ft | 524 kts | 150° |
| 2026-04-30 12:11 | 31.84234 | 32.74929 | 39040 ft | 523 kts | 150° |
| 2026-04-30 12:11 | 31.78291 | 32.79872 | 39043 ft | 523 kts | 150° |
| 2026-04-30 12:12 | 31.72349 | 32.84807 | 39036 ft | 523 kts | 150° |
| 2026-04-30 12:12 | 31.66407 | 32.89733 | 39026 ft | 523 kts | 150° |
| 2026-04-30 12:13 | 31.60511 | 32.94615 | 39042 ft | 522 kts | 150° |
| 2026-04-30 12:13 | 31.54580 | 32.99517 | 39036 ft | 521 kts | 150° |
| 2026-04-30 12:14 | 31.48657 | 33.04404 | 39035 ft | 521 kts | 150° |
| 2026-04-30 12:14 | 31.42725 | 33.09292 | 39035 ft | 521 kts | 150° |
| 2026-04-30 12:15 | 31.36809 | 33.14097 | 39035 ft | 519 kts | 154° |
| 2026-04-30 12:15 | 31.30535 | 33.18157 | 39041 ft | 514 kts | 158° |
| 2026-04-30 12:16 | 31.24234 | 33.22125 | 39044 ft | 514 kts | 158° |
| 2026-04-30 12:16 | 31.17942 | 33.26094 | 39043 ft | 514 kts | 158° |
| 2026-04-30 12:17 | 31.08533 | 33.32015 | 39041 ft | 514 kts | 158° |
| 2026-04-30 12:17 | 31.02231 | 33.35972 | 39040 ft | 514 kts | 158° |
| 2026-04-30 12:18 | 30.95930 | 33.39923 | 39033 ft | 514 kts | 158° |
| 2026-04-30 12:18 | 30.89669 | 33.43842 | 39030 ft | 514 kts | 158° |
| 2026-04-30 12:19 | 30.83372 | 33.47778 | 39029 ft | 514 kts | 158° |
| 2026-04-30 12:19 | 30.77065 | 33.51714 | 39015 ft | 514 kts | 158° |
| 2026-04-30 12:20 | 30.70754 | 33.55648 | 39007 ft | 514 kts | 158° |
| 2026-04-30 12:20 | 30.64482 | 33.59552 | 39004 ft | 515 kts | 158° |
| 2026-04-30 12:21 | 30.58168 | 33.63474 | 39005 ft | 515 kts | 158° |
| 2026-04-30 12:21 | 30.51841 | 33.67400 | 39003 ft | 516 kts | 158° |
| 2026-04-30 12:22 | 30.45510 | 33.71322 | 39005 ft | 516 kts | 158° |
| 2026-04-30 12:22 | 30.39227 | 33.75209 | 38994 ft | 515 kts | 159° |
| 2026-04-30 12:23 | 30.32909 | 33.79111 | 38992 ft | 515 kts | 159° |
| 2026-04-30 12:23 | 30.26584 | 33.83012 | 38986 ft | 515 kts | 159° |
| 2026-04-30 12:24 | 30.20259 | 33.86907 | 38984 ft | 515 kts | 159° |
| 2026-04-30 12:24 | 30.13933 | 33.90798 | 38967 ft | 515 kts | 159° |
| 2026-04-30 12:25 | 30.07650 | 33.94656 | 38982 ft | 515 kts | 159° |
| 2026-04-30 12:25 | 30.01321 | 33.98537 | 38988 ft | 515 kts | 159° |
| 2026-04-30 12:26 | 29.94993 | 34.02411 | 38985 ft | 515 kts | 159° |
| 2026-04-30 12:26 | 29.88662 | 34.06282 | 38983 ft | 515 kts | 159° |
| 2026-04-30 12:27 | 29.82385 | 34.10115 | 38974 ft | 514 kts | 159° |
| 2026-04-30 12:27 | 29.76057 | 34.13972 | 38974 ft | 515 kts | 159° |
| 2026-04-30 12:28 | 29.69761 | 34.17928 | 38978 ft | 521 kts | 153° |
| 2026-04-30 12:28 | 29.66900 | 34.20544 | 38979 ft | 531 kts | 141° |
| 2026-04-30 12:28 | 29.64451 | 34.23768 | 38976 ft | 540 kts | 130° |
| 2026-04-30 12:29 | 29.62510 | 34.27497 | 38978 ft | 548 kts | 118° |
| 2026-04-30 12:29 | 29.61154 | 34.31606 | 38978 ft | 553 kts | 107° |
| 2026-04-30 12:29 | 29.60441 | 34.35890 | 38976 ft | 556 kts | 96° |
| 2026-04-30 12:29 | 29.60326 | 34.40335 | 38978 ft | 557 kts | 89° |
| 2026-04-30 12:30 | 29.60578 | 34.49240 | 38966 ft | 557 kts | 89° |
| 2026-04-30 12:30 | 29.60371 | 34.53679 | 38954 ft | 556 kts | 100° |
| 2026-04-30 12:30 | 29.59506 | 34.57991 | 38956 ft | 552 kts | 111° |
| 2026-04-30 12:31 | 29.58017 | 34.62030 | 38954 ft | 546 kts | 123° |
| 2026-04-30 12:31 | 29.55993 | 34.65615 | 38946 ft | 539 kts | 134° |
| 2026-04-30 12:31 | 29.53463 | 34.68719 | 38946 ft | 529 kts | 145° |
| 2026-04-30 12:31 | 29.50568 | 34.71268 | 38947 ft | 522 kts | 151° |
| 2026-04-30 12:32 | 29.47752 | 34.73957 | 38926 ft | 533 kts | 140° |
| 2026-04-30 12:32 | 29.45353 | 34.77242 | 38932 ft | 542 kts | 129° |
| 2026-04-30 12:32 | 29.43469 | 34.81023 | 38933 ft | 550 kts | 118° |
| 2026-04-30 12:32 | 29.42174 | 34.85173 | 38932 ft | 556 kts | 106° |
| 2026-04-30 12:33 | 29.41518 | 34.89554 | 38934 ft | 559 kts | 95° |
| 2026-04-30 12:33 | 29.41502 | 34.94018 | 38936 ft | 561 kts | 85° |
| 2026-04-30 12:33 | 29.42682 | 35.02789 | 38926 ft | 561 kts | 75° |
| 2026-04-30 12:34 | 29.44783 | 35.11392 | 38938 ft | 561 kts | 73° |
| 2026-04-30 12:34 | 29.46807 | 35.20057 | 38954 ft | 562 kts | 73° |
| 2026-04-30 12:35 | 29.48816 | 35.28721 | 38951 ft | 563 kts | 73° |
| 2026-04-30 12:35 | 29.50832 | 35.37405 | 38978 ft | 563 kts | 73° |
| 2026-04-30 12:36 | 29.52830 | 35.46029 | 38979 ft | 562 kts | 73° |
| 2026-04-30 12:36 | 29.54857 | 35.54691 | 38952 ft | 562 kts | 73° |
| 2026-04-30 12:37 | 29.56921 | 35.63346 | 38945 ft | 562 kts | 73° |
| 2026-04-30 12:37 | 29.58971 | 35.71997 | 38950 ft | 561 kts | 73° |
| 2026-04-30 12:38 | 29.60990 | 35.80598 | 38948 ft | 561 kts | 75° |
| 2026-04-30 12:38 | 29.62469 | 35.89404 | 38940 ft | 561 kts | 78° |
| 2026-04-30 12:39 | 29.63913 | 35.98213 | 38935 ft | 561 kts | 78° |
| 2026-04-30 12:39 | 29.65340 | 36.06951 | 38935 ft | 560 kts | 78° |
| 2026-04-30 12:40 | 29.66767 | 36.15756 | 38935 ft | 560 kts | 79° |
| 2026-04-30 12:40 | 29.68189 | 36.24572 | 38967 ft | 561 kts | 79° |
| 2026-04-30 12:41 | 29.69606 | 36.33398 | 38948 ft | 561 kts | 79° |
| 2026-04-30 12:41 | 29.71017 | 36.42173 | 38949 ft | 561 kts | 79° |
| 2026-04-30 12:42 | 29.72452 | 36.50994 | 38941 ft | 562 kts | 79° |
| 2026-04-30 12:42 | 29.73882 | 36.59835 | 38943 ft | 562 kts | 79° |
| 2026-04-30 12:43 | 29.74530 | 36.68784 | 38952 ft | 562 kts | 94° |
| 2026-04-30 12:43 | 29.73431 | 36.77584 | 38951 ft | 559 kts | 106° |
| 2026-04-30 12:44 | 29.71678 | 36.86306 | 38982 ft | 560 kts | 105° |
| 2026-04-30 12:44 | 29.69950 | 36.95035 | 38994 ft | 560 kts | 105° |
| 2026-04-30 12:45 | 29.68206 | 37.03763 | 38981 ft | 560 kts | 106° |
| 2026-04-30 12:45 | 29.66465 | 37.12427 | 38983 ft | 560 kts | 106° |
| 2026-04-30 12:46 | 29.64707 | 37.21142 | 38989 ft | 559 kts | 106° |
| 2026-04-30 12:46 | 29.62945 | 37.29848 | 38977 ft | 559 kts | 106° |
| 2026-04-30 12:47 | 29.61176 | 37.38548 | 38983 ft | 559 kts | 106° |
| 2026-04-30 12:47 | 29.59416 | 37.47181 | 38988 ft | 559 kts | 106° |
| 2026-04-30 12:48 | 29.57634 | 37.55889 | 38980 ft | 560 kts | 106° |
| 2026-04-30 12:48 | 29.55844 | 37.64607 | 38987 ft | 561 kts | 106° |
| 2026-04-30 12:49 | 29.54046 | 37.73333 | 38982 ft | 562 kts | 107° |
| 2026-04-30 12:49 | 29.52251 | 37.82011 | 38982 ft | 563 kts | 107° |
| 2026-04-30 12:50 | 29.50436 | 37.90757 | 38993 ft | 563 kts | 107° |
| 2026-04-30 12:50 | 29.48616 | 37.99502 | 38985 ft | 564 kts | 107° |
| 2026-04-30 12:51 | 29.46991 | 38.08335 | 38992 ft | 567 kts | 104° |
| 2026-04-30 12:51 | 29.45481 | 38.17158 | 39000 ft | 568 kts | 104° |
| 2026-04-30 12:52 | 29.43916 | 38.26038 | 38993 ft | 568 kts | 104° |
| 2026-04-30 12:52 | 29.42327 | 38.34928 | 39000 ft | 569 kts | 105° |
| 2026-04-30 12:53 | 29.40729 | 38.43825 | 39008 ft | 570 kts | 105° |
| 2026-04-30 12:53 | 29.39126 | 38.52716 | 39044 ft | 570 kts | 105° |
| 2026-04-30 12:54 | 29.37528 | 38.61547 | 39039 ft | 569 kts | 105° |
| 2026-04-30 12:54 | 29.35917 | 38.70417 | 39012 ft | 568 kts | 105° |
| 2026-04-30 12:55 | 29.34301 | 38.79273 | 39011 ft | 567 kts | 105° |
| 2026-04-30 12:55 | 29.32692 | 38.88059 | 39008 ft | 567 kts | 105° |
| 2026-04-30 12:56 | 29.30979 | 38.96866 | 39006 ft | 566 kts | 107° |
| 2026-04-30 12:56 | 29.29107 | 39.05609 | 39011 ft | 566 kts | 107° |
| 2026-04-30 12:57 | 29.27249 | 39.14373 | 38994 ft | 566 kts | 107° |
| 2026-04-30 12:57 | 29.25400 | 39.23147 | 39011 ft | 567 kts | 107° |
| 2026-04-30 12:58 | 29.23557 | 39.31880 | 39025 ft | 568 kts | 107° |
| 2026-04-30 12:58 | 29.21693 | 39.40675 | 39025 ft | 570 kts | 107° |
| 2026-04-30 12:59 | 29.19818 | 39.49497 | 39036 ft | 571 kts | 107° |
| 2026-04-30 12:59 | 29.17933 | 39.58334 | 39030 ft | 572 kts | 107° |
| 2026-04-30 13:00 | 29.16052 | 39.67120 | 39045 ft | 573 kts | 107° |
| 2026-04-30 13:00 | 29.14150 | 39.75974 | 39051 ft | 573 kts | 107° |
| 2026-04-30 13:01 | 29.12174 | 39.84803 | 39045 ft | 570 kts | 113° |
| 2026-04-30 13:01 | 29.10647 | 39.88937 | 39049 ft | 562 kts | 124° |
| 2026-04-30 13:01 | 29.08590 | 39.92686 | 39048 ft | 552 kts | 134° |
| 2026-04-30 13:02 | 29.06132 | 39.95925 | 39048 ft | 541 kts | 144° |
| 2026-04-30 13:02 | 29.03391 | 39.98849 | 39046 ft | 539 kts | 145° |
| 2026-04-30 13:02 | 28.97924 | 40.04719 | 39052 ft | 540 kts | 144° |
| 2026-04-30 13:03 | 28.92459 | 40.10601 | 39051 ft | 540 kts | 144° |
| 2026-04-30 13:03 | 28.86986 | 40.16471 | 39050 ft | 540 kts | 144° |
| 2026-04-30 13:04 | 28.81540 | 40.22301 | 39050 ft | 540 kts | 144° |
| 2026-04-30 13:04 | 28.76055 | 40.28165 | 39025 ft | 540 kts | 145° |
| 2026-04-30 13:05 | 28.70567 | 40.34022 | 39031 ft | 541 kts | 145° |
| 2026-04-30 13:06 | 28.62314 | 40.42812 | 39043 ft | 542 kts | 145° |
| 2026-04-30 13:06 | 28.56838 | 40.48634 | 39033 ft | 542 kts | 145° |
| 2026-04-30 13:07 | 28.51326 | 40.54486 | 39040 ft | 543 kts | 145° |
| 2026-04-30 13:07 | 28.45800 | 40.60344 | 39041 ft | 543 kts | 145° |
| 2026-04-30 13:08 | 28.40269 | 40.66199 | 39043 ft | 543 kts | 146° |
| 2026-04-30 13:08 | 28.34771 | 40.72010 | 39035 ft | 544 kts | 146° |
| 2026-04-30 13:09 | 28.29231 | 40.77856 | 39035 ft | 544 kts | 146° |
| 2026-04-30 13:09 | 28.23689 | 40.83696 | 39036 ft | 544 kts | 146° |
| 2026-04-30 13:10 | 28.18150 | 40.89524 | 39032 ft | 544 kts | 146° |
| 2026-04-30 13:10 | 28.12642 | 40.95312 | 39029 ft | 543 kts | 146° |
| 2026-04-30 13:11 | 28.07100 | 41.01125 | 39031 ft | 543 kts | 146° |
| 2026-04-30 13:11 | 28.01558 | 41.06931 | 39015 ft | 543 kts | 146° |
| 2026-04-30 13:12 | 27.96011 | 41.12732 | 39019 ft | 543 kts | 146° |
| 2026-04-30 13:12 | 27.90499 | 41.18491 | 39016 ft | 543 kts | 146° |
| 2026-04-30 13:13 | 27.82172 | 41.27174 | 39025 ft | 543 kts | 146° |
| 2026-04-30 13:14 | 27.73830 | 41.35855 | 39012 ft | 544 kts | 146° |
| 2026-04-30 13:14 | 27.65530 | 41.44476 | 39011 ft | 544 kts | 146° |
| 2026-04-30 13:15 | 27.57168 | 41.53137 | 39018 ft | 545 kts | 146° |
| 2026-04-30 13:16 | 27.51579 | 41.58917 | 39033 ft | 545 kts | 146° |
| 2026-04-30 13:16 | 27.46036 | 41.64664 | 39030 ft | 547 kts | 144° |
| 2026-04-30 13:17 | 27.41035 | 41.71259 | 39031 ft | 562 kts | 132° |
| 2026-04-30 13:17 | 27.38937 | 41.74998 | 39033 ft | 567 kts | 127° |
| 2026-04-30 13:18 | 27.32951 | 41.86462 | 39025 ft | 566 kts | 127° |
| 2026-04-30 13:18 | 27.26950 | 41.97831 | 39020 ft | 566 kts | 127° |
| 2026-04-30 13:19 | 27.22936 | 42.05423 | 39010 ft | 564 kts | 127° |
| 2026-04-30 13:19 | 27.18922 | 42.12997 | 39006 ft | 564 kts | 128° |
| 2026-04-30 13:20 | 27.14930 | 42.20521 | 38996 ft | 565 kts | 128° |
| 2026-04-30 13:20 | 27.10913 | 42.28079 | 39027 ft | 564 kts | 128° |
| 2026-04-30 13:21 | 27.06889 | 42.35636 | 39011 ft | 564 kts | 128° |
| 2026-04-30 13:22 | 27.00853 | 42.46944 | 39005 ft | 562 kts | 128° |
| 2026-04-30 13:22 | 26.94844 | 42.58171 | 38993 ft | 562 kts | 128° |
| 2026-04-30 13:23 | 26.88816 | 42.69407 | 38988 ft | 560 kts | 128° |
| 2026-04-30 13:24 | 26.80800 | 42.84302 | 38977 ft | 560 kts | 128° |
| 2026-04-30 13:25 | 26.72748 | 42.99216 | 38973 ft | 560 kts | 128° |
| 2026-04-30 13:26 | 26.62700 | 43.17759 | 38968 ft | 559 kts | 128° |
| 2026-04-30 13:28 | 26.52649 | 43.36241 | 38952 ft | 557 kts | 128° |
| 2026-04-30 13:28 | 26.46619 | 43.47293 | 38972 ft | 554 kts | 128° |
| 2026-04-30 13:29 | 26.38597 | 43.61951 | 38939 ft | 553 kts | 129° |
| 2026-04-30 13:31 | 26.28737 | 43.80242 | 38941 ft | 555 kts | 123° |
| 2026-04-30 13:32 | 26.19998 | 43.99324 | 38933 ft | 554 kts | 124° |
| 2026-04-30 13:33 | 26.12972 | 44.14558 | 38935 ft | 553 kts | 124° |
| 2026-04-30 13:34 | 26.07693 | 44.25969 | 38940 ft | 552 kts | 124° |
| 2026-04-30 13:35 | 26.00675 | 44.41097 | 38941 ft | 552 kts | 124° |
| 2026-04-30 13:36 | 25.93623 | 44.56244 | 38938 ft | 551 kts | 124° |
| 2026-04-30 13:36 | 25.88362 | 44.67512 | 38933 ft | 550 kts | 124° |
| 2026-04-30 13:37 | 25.83076 | 44.78800 | 38927 ft | 549 kts | 124° |
| 2026-04-30 13:38 | 25.77782 | 44.90060 | 38939 ft | 548 kts | 124° |
| 2026-04-30 13:39 | 25.70748 | 45.04984 | 38945 ft | 547 kts | 124° |
| 2026-04-30 13:40 | 25.65464 | 45.16165 | 38953 ft | 545 kts | 123° |
| 2026-04-30 13:40 | 25.61948 | 45.23598 | 38943 ft | 544 kts | 124° |
| 2026-04-30 13:41 | 25.58460 | 45.30964 | 38941 ft | 544 kts | 124° |
| 2026-04-30 13:41 | 25.54941 | 45.38379 | 38937 ft | 543 kts | 124° |
| 2026-04-30 13:42 | 25.51422 | 45.45783 | 38937 ft | 543 kts | 124° |
| 2026-04-30 13:42 | 25.46166 | 45.56818 | 38931 ft | 542 kts | 124° |
| 2026-04-30 13:43 | 25.42647 | 45.64190 | 38951 ft | 541 kts | 124° |
| 2026-04-30 13:43 | 25.39131 | 45.71543 | 38947 ft | 541 kts | 124° |
| 2026-04-30 13:44 | 25.35611 | 45.78896 | 38941 ft | 541 kts | 124° |
| 2026-04-30 13:44 | 25.32353 | 45.86366 | 38952 ft | 543 kts | 120° |
| 2026-04-30 13:45 | 25.27627 | 45.97746 | 38965 ft | 543 kts | 120° |
| 2026-04-30 13:46 | 25.24423 | 46.05303 | 38957 ft | 543 kts | 121° |
| 2026-04-30 13:46 | 25.21211 | 46.12845 | 38938 ft | 543 kts | 121° |
| 2026-04-30 13:47 | 25.18020 | 46.20324 | 38962 ft | 542 kts | 121° |
| 2026-04-30 13:47 | 25.14805 | 46.27846 | 38964 ft | 542 kts | 121° |
| 2026-04-30 13:48 | 25.11588 | 46.35362 | 38962 ft | 541 kts | 121° |
| 2026-04-30 13:48 | 25.08390 | 46.42820 | 38968 ft | 541 kts | 121° |
| 2026-04-30 13:49 | 25.05175 | 46.50307 | 38969 ft | 540 kts | 121° |
| 2026-04-30 13:49 | 25.01953 | 46.57798 | 38971 ft | 540 kts | 121° |
| 2026-04-30 13:50 | 24.97984 | 46.64655 | 38964 ft | 522 kts | 140° |
| 2026-04-30 13:50 | 24.92406 | 46.69452 | 38950 ft | 500 kts | 159° |
| 2026-04-30 13:50 | 24.89276 | 46.71024 | 38958 ft | 493 kts | 165° |
| 2026-04-30 13:51 | 24.82987 | 46.73960 | 38959 ft | 495 kts | 164° |
| 2026-04-30 13:51 | 24.76654 | 46.76946 | 38938 ft | 495 kts | 164° |
| 2026-04-30 13:52 | 24.70314 | 46.79924 | 38950 ft | 496 kts | 164° |
| 2026-04-30 13:52 | 24.64003 | 46.82883 | 38939 ft | 497 kts | 164° |
| 2026-04-30 13:53 | 24.57644 | 46.85861 | 38956 ft | 498 kts | 164° |
| 2026-04-30 13:53 | 24.52344 | 46.88339 | 38944 ft | 498 kts | 163° |
| 2026-04-30 13:54 | 24.45966 | 46.91320 | 38942 ft | 498 kts | 163° |
| 2026-04-30 13:54 | 24.38555 | 46.94779 | 38938 ft | 498 kts | 163° |
| 2026-04-30 13:55 | 24.32186 | 46.97748 | 38931 ft | 498 kts | 163° |
| 2026-04-30 13:55 | 24.25809 | 47.00717 | 38923 ft | 498 kts | 163° |
| 2026-04-30 13:56 | 24.20508 | 47.03183 | 38915 ft | 498 kts | 163° |
| 2026-04-30 13:56 | 24.14268 | 47.06530 | 38910 ft | 507 kts | 152° |
| 2026-04-30 13:57 | 24.10633 | 47.09806 | 38909 ft | 518 kts | 140° |
| 2026-04-30 13:57 | 24.09010 | 47.11809 | 38901 ft | 523 kts | 133° |
| 2026-04-30 13:57 | 24.05059 | 47.18486 | 38894 ft | 528 kts | 127° |
| 2026-04-30 13:58 | 23.99224 | 47.28700 | 38907 ft | 528 kts | 127° |
| 2026-04-30 13:59 | 23.94694 | 47.36602 | 38916 ft | 528 kts | 127° |
| 2026-04-30 13:59 | 23.91449 | 47.42259 | 38920 ft | 528 kts | 127° |
| 2026-04-30 14:00 | 23.87544 | 47.49056 | 38890 ft | 529 kts | 127° |
| 2026-04-30 14:00 | 23.81684 | 47.59241 | 38901 ft | 527 kts | 127° |
| 2026-04-30 14:01 | 23.77780 | 47.66014 | 38890 ft | 527 kts | 127° |
| 2026-04-30 14:01 | 23.73903 | 47.72733 | 38880 ft | 526 kts | 127° |
| 2026-04-30 14:02 | 23.70005 | 47.79478 | 38883 ft | 525 kts | 126° |
| 2026-04-30 14:02 | 23.66109 | 47.86210 | 38876 ft | 524 kts | 127° |
| 2026-04-30 14:03 | 23.62223 | 47.92916 | 38865 ft | 523 kts | 127° |
| 2026-04-30 14:03 | 23.58335 | 47.99618 | 38858 ft | 523 kts | 127° |
| 2026-04-30 14:04 | 23.54475 | 48.06261 | 38874 ft | 521 kts | 126° |
| 2026-04-30 14:04 | 23.50597 | 48.12927 | 38857 ft | 520 kts | 126° |
| 2026-04-30 14:05 | 23.46723 | 48.19578 | 38839 ft | 520 kts | 126° |
| 2026-04-30 14:05 | 23.42850 | 48.26217 | 38851 ft | 519 kts | 126° |
| 2026-04-30 14:06 | 23.38505 | 48.36952 | 38842 ft | 527 kts | 104° |
| 2026-04-30 14:07 | 23.37656 | 48.48913 | 38827 ft | 529 kts | 94° |
| 2026-04-30 14:08 | 23.37162 | 48.60904 | 38823 ft | 528 kts | 95° |
| 2026-04-30 14:08 | 23.36664 | 48.72823 | 38837 ft | 528 kts | 95° |
| 2026-04-30 14:09 | 23.36326 | 48.80807 | 38835 ft | 528 kts | 95° |
| 2026-04-30 14:10 | 23.35813 | 48.92782 | 38836 ft | 527 kts | 95° |
| 2026-04-30 14:10 | 23.35469 | 49.00688 | 38831 ft | 527 kts | 95° |
| 2026-04-30 14:11 | 23.35116 | 49.08650 | 38829 ft | 526 kts | 95° |
| 2026-04-30 14:11 | 23.34701 | 49.16596 | 38831 ft | 526 kts | 96° |
| 2026-04-30 14:12 | 23.34281 | 49.24535 | 38824 ft | 525 kts | 96° |
| 2026-04-30 14:12 | 23.33868 | 49.32409 | 38829 ft | 525 kts | 96° |
| 2026-04-30 14:13 | 23.33448 | 49.40347 | 38826 ft | 525 kts | 96° |
| 2026-04-30 14:13 | 23.33024 | 49.48284 | 38826 ft | 525 kts | 96° |
| 2026-04-30 14:14 | 23.32599 | 49.56169 | 38820 ft | 525 kts | 96° |
| 2026-04-30 14:14 | 23.32166 | 49.64103 | 38832 ft | 525 kts | 96° |
| 2026-04-30 14:15 | 23.31730 | 49.72034 | 38829 ft | 525 kts | 96° |
| 2026-04-30 14:15 | 23.31289 | 49.79971 | 38830 ft | 526 kts | 96° |
| 2026-04-30 14:16 | 23.30845 | 49.87910 | 38836 ft | 526 kts | 96° |
| 2026-04-30 14:16 | 23.30399 | 49.95788 | 38827 ft | 526 kts | 96° |
| 2026-04-30 14:17 | 23.29947 | 50.03727 | 38835 ft | 526 kts | 96° |
| 2026-04-30 14:17 | 23.29490 | 50.11666 | 38829 ft | 526 kts | 96° |
| 2026-04-30 14:18 | 23.29032 | 50.19552 | 38832 ft | 526 kts | 96° |
| 2026-04-30 14:18 | 23.28334 | 50.31445 | 38831 ft | 525 kts | 96° |
| 2026-04-30 14:19 | 23.27628 | 50.43335 | 38834 ft | 525 kts | 96° |
| 2026-04-30 14:20 | 23.27155 | 50.51208 | 38824 ft | 525 kts | 96° |
| 2026-04-30 14:20 | 23.26434 | 50.63086 | 38828 ft | 525 kts | 96° |
| 2026-04-30 14:21 | 23.25948 | 50.71012 | 38823 ft | 525 kts | 96° |
| 2026-04-30 14:22 | 23.25214 | 50.82854 | 38829 ft | 526 kts | 96° |
| 2026-04-30 14:22 | 23.24469 | 50.94741 | 38835 ft | 525 kts | 96° |
| 2026-04-30 14:23 | 23.23462 | 51.10581 | 38834 ft | 525 kts | 96° |
| 2026-04-30 14:24 | 23.22700 | 51.22391 | 38825 ft | 524 kts | 96° |
| 2026-04-30 14:25 | 23.21668 | 51.38183 | 38832 ft | 524 kts | 96° |
| 2026-04-30 14:26 | 23.20887 | 51.49969 | 38826 ft | 523 kts | 96° |
| 2026-04-30 14:27 | 23.20095 | 51.61799 | 38827 ft | 523 kts | 97° |
| 2026-04-30 14:27 | 23.19562 | 51.69677 | 38838 ft | 522 kts | 96° |
| 2026-04-30 14:28 | 23.18761 | 51.81412 | 38829 ft | 521 kts | 96° |
| 2026-04-30 14:28 | 23.18220 | 51.89267 | 38823 ft | 521 kts | 96° |
| 2026-04-30 14:29 | 23.17130 | 52.04913 | 38818 ft | 521 kts | 97° |
| 2026-04-30 14:31 | 23.15742 | 52.24538 | 38812 ft | 522 kts | 97° |
| 2026-04-30 14:31 | 23.15047 | 52.36347 | 38816 ft | 524 kts | 91° |
| 2026-04-30 14:32 | 23.15899 | 52.44172 | 38821 ft | 527 kts | 78° |
| 2026-04-30 14:32 | 23.16788 | 52.48037 | 38815 ft | 527 kts | 80° |
| 2026-04-30 14:33 | 23.17870 | 52.55886 | 38809 ft | 526 kts | 84° |
| 2026-04-30 14:33 | 23.19379 | 52.67655 | 38815 ft | 527 kts | 84° |
| 2026-04-30 14:34 | 23.20386 | 52.75545 | 38814 ft | 527 kts | 84° |
| 2026-04-30 14:34 | 23.21390 | 52.83442 | 38814 ft | 527 kts | 84° |
| 2026-04-30 14:35 | 23.22887 | 52.95295 | 38818 ft | 528 kts | 84° |
| 2026-04-30 14:36 | 23.23872 | 53.03135 | 38817 ft | 527 kts | 84° |
| 2026-04-30 14:36 | 23.24862 | 53.11041 | 38815 ft | 527 kts | 84° |
| 2026-04-30 14:37 | 23.25847 | 53.18944 | 38818 ft | 527 kts | 84° |
| 2026-04-30 14:37 | 23.26828 | 53.26847 | 38816 ft | 527 kts | 84° |
| 2026-04-30 14:38 | 23.27798 | 53.34691 | 38814 ft | 527 kts | 84° |
| 2026-04-30 14:38 | 23.28772 | 53.42602 | 38811 ft | 528 kts | 84° |
| 2026-04-30 14:39 | 23.29742 | 53.50515 | 38814 ft | 528 kts | 84° |
| 2026-04-30 14:39 | 23.30708 | 53.58431 | 38813 ft | 528 kts | 84° |
| 2026-04-30 14:40 | 23.32143 | 53.70250 | 38814 ft | 528 kts | 84° |
| 2026-04-30 14:40 | 23.33100 | 53.78172 | 38810 ft | 528 kts | 84° |
| 2026-04-30 14:41 | 23.34053 | 53.86097 | 38814 ft | 528 kts | 84° |
| 2026-04-30 14:41 | 23.34996 | 53.93973 | 38812 ft | 528 kts | 84° |
| 2026-04-30 14:42 | 23.35940 | 54.01896 | 38807 ft | 529 kts | 84° |
| 2026-04-30 14:42 | 23.36882 | 54.09833 | 38804 ft | 529 kts | 84° |
| 2026-04-30 14:43 | 23.37820 | 54.17768 | 38805 ft | 528 kts | 84° |
| 2026-04-30 14:43 | 23.38748 | 54.25649 | 38805 ft | 528 kts | 84° |
| 2026-04-30 14:44 | 23.39677 | 54.33585 | 38801 ft | 529 kts | 85° |
| 2026-04-30 14:44 | 23.40603 | 54.41528 | 38800 ft | 529 kts | 85° |
| 2026-04-30 14:45 | 23.41526 | 54.49476 | 38799 ft | 529 kts | 85° |
| 2026-04-30 14:45 | 23.42446 | 54.57433 | 38789 ft | 530 kts | 85° |
| 2026-04-30 14:46 | 23.43355 | 54.65340 | 38793 ft | 531 kts | 85° |
| 2026-04-30 14:46 | 23.44267 | 54.73308 | 38664 ft | 527 kts | 85° |
| 2026-04-30 14:47 | 23.44717 | 54.77257 | 38302 ft | 524 kts | 85° |
| 2026-04-30 14:47 | 23.45165 | 54.81191 | 37881 ft | 523 kts | 85° |
| 2026-04-30 14:47 | 23.45611 | 54.85129 | 37458 ft | 525 kts | 85° |
| 2026-04-30 14:47 | 23.46052 | 54.89027 | 37059 ft | 526 kts | 85° |
| 2026-04-30 14:48 | 23.46498 | 54.92978 | 36661 ft | 527 kts | 85° |
| 2026-04-30 14:48 | 23.46946 | 54.96946 | 36267 ft | 528 kts | 84° |
| 2026-04-30 14:48 | 23.47393 | 55.00921 | 35880 ft | 529 kts | 84° |
| 2026-04-30 14:48 | 23.47840 | 55.04906 | 35504 ft | 531 kts | 84° |
| 2026-04-30 14:49 | 23.48287 | 55.08903 | 35134 ft | 532 kts | 84° |
| 2026-04-30 14:49 | 23.48735 | 55.12906 | 34762 ft | 533 kts | 84° |
| 2026-04-30 14:49 | 23.49176 | 55.16861 | 34410 ft | 533 kts | 84° |
| 2026-04-30 14:49 | 23.49621 | 55.20869 | 34049 ft | 532 kts | 84° |
| 2026-04-30 14:50 | 23.50607 | 55.28804 | 33271 ft | 527 kts | 77° |
| 2026-04-30 14:50 | 23.51741 | 55.32588 | 32879 ft | 525 kts | 65° |
| 2026-04-30 14:51 | 23.55778 | 55.39078 | 32106 ft | 515 kts | 42° |
| 2026-04-30 14:51 | 23.58519 | 55.41547 | 31715 ft | 508 kts | 31° |
| 2026-04-30 14:51 | 23.64841 | 55.44488 | 30969 ft | 492 kts | 7° |
| 2026-04-30 14:52 | 23.68205 | 55.44935 | 30613 ft | 484 kts | 359° |
| 2026-04-30 14:52 | 23.74895 | 55.45722 | 29889 ft | 486 kts | 6° |
| 2026-04-30 14:52 | 23.78211 | 55.46464 | 29475 ft | 486 kts | 9° |
| 2026-04-30 14:53 | 23.84717 | 55.48292 | 28636 ft | 479 kts | 11° |
| 2026-04-30 14:53 | 23.87875 | 55.49236 | 28223 ft | 475 kts | 11° |
| 2026-04-30 14:54 | 23.94208 | 55.51131 | 27425 ft | 469 kts | 11° |
| 2026-04-30 14:54 | 24.00356 | 55.53441 | 26659 ft | 470 kts | 24° |
| 2026-04-30 14:55 | 24.05611 | 55.57701 | 25912 ft | 472 kts | 40° |
| 2026-04-30 14:55 | 24.08026 | 55.60114 | 25541 ft | 469 kts | 39° |
| 2026-04-30 14:55 | 24.12804 | 55.64838 | 24818 ft | 463 kts | 39° |
| 2026-04-30 14:56 | 24.17556 | 55.69543 | 24107 ft | 458 kts | 39° |
| 2026-04-30 14:56 | 24.22251 | 55.74203 | 23409 ft | 453 kts | 39° |
| 2026-04-30 14:57 | 24.24577 | 55.76513 | 22990 ft | 450 kts | 39° |
| 2026-04-30 14:57 | 24.29152 | 55.81063 | 22184 ft | 446 kts | 39° |
| 2026-04-30 14:58 | 24.33716 | 55.85605 | 21376 ft | 440 kts | 39° |
| 2026-04-30 14:58 | 24.35976 | 55.87856 | 20998 ft | 438 kts | 39° |
| 2026-04-30 14:58 | 24.40461 | 55.92326 | 20306 ft | 434 kts | 39° |
| 2026-04-30 14:59 | 24.44883 | 55.96737 | 19591 ft | 421 kts | 39° |
| 2026-04-30 15:00 | 24.51022 | 56.02872 | 18584 ft | 379 kts | 39° |
| 2026-04-30 15:00 | 24.54806 | 56.06651 | 17909 ft | 357 kts | 39° |
| 2026-04-30 15:01 | 24.58372 | 56.10226 | 17188 ft | 337 kts | 39° |
| 2026-04-30 15:01 | 24.60201 | 56.11685 | 16839 ft | 323 kts | 22° |
| 2026-04-30 15:01 | 24.64333 | 56.12903 | 16142 ft | 304 kts | 3° |
| 2026-04-30 15:02 | 24.66421 | 56.13266 | 15809 ft | 303 kts | 5° |
| 2026-04-30 15:02 | 24.68492 | 56.13652 | 15476 ft | 301 kts | 5° |
| 2026-04-30 15:03 | 24.74626 | 56.14799 | 14517 ft | 297 kts | 5° |
| 2026-04-30 15:03 | 24.78710 | 56.15386 | 13914 ft | 291 kts | 353° |
| 2026-04-30 15:04 | 24.82492 | 56.14147 | 13245 ft | 283 kts | 330° |
| 2026-04-30 15:04 | 24.87907 | 56.11465 | 12070 ft | 287 kts | 332° |
| 2026-04-30 15:05 | 24.92698 | 56.08272 | 11604 ft | 258 kts | 296° |
| 2026-04-30 15:06 | 24.94034 | 56.04709 | 11045 ft | 248 kts | 289° |
| 2026-04-30 15:06 | 24.95358 | 56.01211 | 10481 ft | 246 kts | 290° |
| 2026-04-30 15:07 | 24.96699 | 55.97805 | 9948 ft | 242 kts | 290° |
| 2026-04-30 15:07 | 24.98035 | 55.94425 | 9486 ft | 240 kts | 291° |
| 2026-04-30 15:08 | 24.99364 | 55.91060 | 9027 ft | 238 kts | 291° |
| 2026-04-30 15:08 | 25.01339 | 55.86056 | 8356 ft | 239 kts | 291° |
| 2026-04-30 15:09 | 25.02661 | 55.82702 | 7895 ft | 239 kts | 292° |
| 2026-04-30 15:09 | 25.03977 | 55.79367 | 7408 ft | 236 kts | 291° |
| 2026-04-30 15:10 | 25.05295 | 55.76011 | 6942 ft | 240 kts | 292° |
| 2026-04-30 15:11 | 25.07928 | 55.69321 | 6018 ft | 240 kts | 293° |
| 2026-04-30 15:11 | 25.09242 | 55.65977 | 5476 ft | 237 kts | 293° |
| 2026-04-30 15:12 | 25.11497 | 55.61207 | 4275 ft | 231 kts | 302° |
| 2026-04-30 15:13 | 25.13169 | 55.58317 | 3700 ft | 220 kts | 302° |
| 2026-04-30 15:14 | 25.16108 | 55.53008 | 2671 ft | 165 kts | 303° |
| 2026-04-30 15:14 | 25.17850 | 55.49859 | 2067 ft | 161 kts | 302° |
| 2026-04-30 15:16 | 25.20444 | 55.45161 | 1145 ft | 131 kts | 301° |
| 2026-04-30 15:17 | 25.22382 | 55.41669 | 490 ft | 137 kts | 301° |
| 2026-04-30 15:18 | 25.24428 | 55.37975 | 30 ft | 55 kts | 301° |
| 2026-04-30 15:19 | 25.24781 | 55.37235 | 29 ft | 20 kts | 276° |